Time;durP1;ratioP1;P1;durP2;ratioP2;P2;SDS_P1;SDS_P2;PMS_P1;PMS_P2;Temp;Humidity;BMP_temperature;BMP_pressure;BME280_temperature;BME280_humidity;BME280_pressure;Samples;Min_cycle;Max_cycle;Signal;HPM_P1;HPM_P2
2022/03/20 00:00:53;;;;;;;24.13;16.35;;;5.20;99.90;;;;;;5013834;28;20022;-76
2022/03/20 00:03:20;;;;;;;28.70;15.70;;;5.10;99.90;;;;;;5013676;28;20029;-76
2022/03/20 00:05:48;;;;;;;29.30;16.83;;;5.10;99.90;;;;;;5031123;28;20022;-77
2022/03/20 00:08:14;;;;;;;28.48;18.30;;;5.10;99.90;;;;;;5031510;28;20128;-75
2022/03/20 00:10:42;;;;;;;27.90;16.92;;;5.10;99.90;;;;;;5031335;28;20014;-78
2022/03/20 00:13:10;;;;;;;27.73;16.98;;;5.10;99.90;;;;;;5031196;28;20026;-78
2022/03/20 00:15:40;;;;;;;28.60;17.17;;;5.10;99.90;;;;;;5045611;23;20041;-79
2022/03/20 00:18:08;;;;;;;31.63;17.08;;;5.10;99.90;;;;;;5021139;28;20065;-77
2022/03/20 00:20:39;;;;;;;29.45;17.58;;;5.10;99.90;;;;;;5038857;28;20448;-77
2022/03/20 00:23:07;;;;;;;25.30;17.25;;;5.00;99.90;;;;;;5040488;28;20029;-78
2022/03/20 00:25:38;;;;;;;28.05;16.60;;;5.00;99.90;;;;;;5025168;28;20380;-77
2022/03/20 00:28:07;;;;;;;28.25;16.70;;;5.00;99.90;;;;;;5025450;28;20030;-78
2022/03/20 00:30:33;;;;;;;27.92;17.40;;;4.90;99.90;;;;;;5042388;28;20147;-77
2022/03/20 00:32:58;;;;;;;31.65;18.35;;;4.90;99.90;;;;;;5025153;28;20026;-78
2022/03/20 00:35:24;;;;;;;29.25;17.42;;;4.90;99.90;;;;;;5042261;28;20037;-77
2022/03/20 00:37:50;;;;;;;29.13;16.80;;;4.90;99.90;;;;;;5025501;28;20022;-79
2022/03/20 00:40:15;;;;;;;33.00;17.45;;;4.80;99.90;;;;;;5042732;28;20035;-79
2022/03/20 00:42:41;;;;;;;29.92;16.85;;;4.80;99.90;;;;;;5042883;28;20029;-78
2022/03/20 00:45:07;;;;;;;30.75;17.40;;;4.80;99.90;;;;;;5058089;28;20033;-79
2022/03/20 00:47:33;;;;;;;35.03;17.98;;;4.80;99.90;;;;;;5045218;28;20032;-77
2022/03/20 00:49:59;;;;;;;29.38;17.02;;;4.80;99.90;;;;;;5063208;28;20040;-78
2022/03/20 00:52:24;;;;;;;32.35;16.73;;;4.70;99.90;;;;;;5063636;28;20024;-78
2022/03/20 00:54:50;;;;;;;29.42;16.00;;;4.70;99.90;;;;;;5045425;28;20510;-80
2022/03/20 00:57:16;;;;;;;29.85;17.38;;;4.60;99.90;;;;;;5063265;28;20021;-77
2022/03/20 00:59:42;;;;;;;32.88;17.88;;;4.70;99.90;;;;;;5063181;28;20476;-77
2022/03/20 01:02:08;;;;;;;27.63;16.85;;;4.60;99.90;;;;;;5063509;28;20025;-79
2022/03/20 01:04:35;;;;;;;31.05;17.30;;;4.60;99.90;;;;;;5045469;28;20056;-79
2022/03/20 01:07:02;;;;;;;27.73;16.33;;;4.50;99.90;;;;;;5044531;28;20480;-77
2022/03/20 01:09:28;;;;;;;33.05;18.40;;;4.50;99.90;;;;;;5062762;28;20071;-77
2022/03/20 01:11:55;;;;;;;31.60;19.10;;;4.40;99.90;;;;;;5044625;28;20131;-77
2022/03/20 01:14:23;;;;;;;29.05;16.98;;;4.30;99.90;;;;;;5043698;28;20021;-78
2022/03/20 01:16:49;;;;;;;31.50;18.15;;;4.20;99.90;;;;;;5061279;28;20039;-80
2022/03/20 01:19:15;;;;;;;29.00;16.65;;;4.20;99.90;;;;;;5062676;28;20033;-78
2022/03/20 01:21:43;;;;;;;28.83;16.35;;;4.20;99.90;;;;;;5044461;28;20106;-79
2022/03/20 01:24:09;;;;;;;29.77;17.02;;;4.20;99.90;;;;;;5044383;28;20025;-77
2022/03/20 01:26:35;;;;;;;33.78;16.83;;;4.10;99.90;;;;;;5061637;28;20138;-78
2022/03/20 01:29:04;;;;;;;27.17;17.50;;;4.10;99.90;;;;;;5046507;28;20047;-79
2022/03/20 01:31:34;;;;;;;30.73;17.00;;;4.00;99.90;;;;;;5049985;28;20028;-79
2022/03/20 01:33:59;;;;;;;32.05;17.83;;;4.10;99.90;;;;;;5061527;28;20029;-77
2022/03/20 01:36:26;;;;;;;29.10;17.50;;;4.00;99.90;;;;;;5062003;28;20067;-78
2022/03/20 01:38:52;;;;;;;30.35;16.90;;;4.10;99.90;;;;;;5043907;28;20024;-77
2022/03/20 01:41:18;;;;;;;33.85;18.38;;;4.10;99.90;;;;;;5044484;28;20044;-76
2022/03/20 01:43:56;;;;;;;29.98;17.70;;;4.10;99.90;;;;;;5039445;28;20022;-79
2022/03/20 01:46:22;;;;;;;32.30;18.80;;;4.00;99.90;;;;;;5041589;28;20444;-79
2022/03/20 01:48:49;;;;;;;36.75;16.92;;;4.00;99.90;;;;;;5042065;28;20059;-79
2022/03/20 01:51:16;;;;;;;35.58;18.73;;;4.00;99.90;;;;;;5023888;28;20083;-79
2022/03/20 01:53:42;;;;;;;36.05;19.60;;;4.00;99.90;;;;;;5040999;28;20185;-79
2022/03/20 01:56:07;;;;;;;30.50;18.23;;;4.00;99.90;;;;;;5019623;28;20025;-79
2022/03/20 01:58:34;;;;;;;32.22;17.48;;;3.90;99.90;;;;;;5022004;28;20106;-79
2022/03/20 02:01:00;;;;;;;34.28;18.30;;;3.90;99.90;;;;;;5022622;28;20033;-76
2022/03/20 02:03:26;;;;;;;32.60;19.20;;;3.90;99.90;;;;;;5021331;28;20025;-79
2022/03/20 02:05:52;;;;;;;31.55;18.48;;;3.90;99.90;;;;;;5022135;28;20026;-77
2022/03/20 02:08:25;;;;;;;31.33;18.08;;;3.90;99.90;;;;;;5039954;28;20481;-77
2022/03/20 02:10:55;;;;;;;30.45;17.90;;;3.90;99.90;;;;;;5040409;28;20021;-76
2022/03/20 02:13:24;;;;;;;31.80;18.25;;;3.80;99.90;;;;;;5039893;28;20025;-80
2022/03/20 02:15:53;;;;;;;29.60;18.63;;;3.80;99.90;;;;;;5021907;28;20037;-80
2022/03/20 02:18:19;;;;;;;31.13;19.20;;;3.80;99.90;;;;;;5040228;28;20028;-77
2022/03/20 02:20:48;;;;;;;31.42;18.70;;;3.70;99.90;;;;;;5040630;28;20029;-77
2022/03/20 02:23:15;;;;;;;33.97;19.13;;;3.70;99.90;;;;;;5040131;28;20109;-78
2022/03/20 02:25:51;;;;;;;33.78;19.13;;;3.70;99.90;;;;;;5041756;28;20033;-79
2022/03/20 02:28:17;;;;;;;34.15;18.02;;;3.70;99.90;;;;;;5044599;28;20079;-78
2022/03/20 02:30:46;;;;;;;32.40;18.23;;;3.70;99.90;;;;;;5059291;28;20084;-79
2022/03/20 02:33:13;;;;;;;30.90;18.70;;;3.70;99.90;;;;;;5051529;28;20029;-79
2022/03/20 02:35:40;;;;;;;34.25;18.63;;;3.70;99.90;;;;;;5062615;28;20025;-77
2022/03/20 02:38:10;;;;;;;34.40;18.63;;;3.80;99.90;;;;;;5060890;28;20115;-77
2022/03/20 02:40:37;;;;;;;30.52;16.80;;;3.80;99.90;;;;;;5042536;28;20032;-80
2022/03/20 02:43:05;;;;;;;28.35;16.95;;;3.90;99.90;;;;;;5059971;28;20021;-80
2022/03/20 02:45:31;;;;;;;31.27;17.92;;;3.90;99.90;;;;;;5023658;28;20030;-76
2022/03/20 02:47:59;;;;;;;30.08;17.83;;;3.90;99.90;;;;;;5039087;28;20056;-78
2022/03/20 02:50:33;;;;;;;34.17;17.63;;;4.00;99.90;;;;;;5040474;28;20091;-79
2022/03/20 02:53:13;;;;;;;30.15;17.23;;;4.00;99.90;;;;;;5041256;28;20057;-77
2022/03/20 02:55:41;;;;;;;28.48;17.92;;;4.00;99.90;;;;;;5042015;28;20049;-80
2022/03/20 02:58:14;;;;;;;35.25;17.95;;;4.00;99.90;;;;;;5041508;28;20067;-79
2022/03/20 03:00:41;;;;;;;28.65;17.13;;;4.00;99.90;;;;;;5041205;28;20052;-78
2022/03/20 03:03:11;;;;;;;35.00;18.17;;;4.00;99.90;;;;;;5041933;28;20152;-80
2022/03/20 03:05:37;;;;;;;30.88;17.48;;;4.00;99.90;;;;;;5040879;28;20504;-79
2022/03/20 03:10:57;;;;;;;31.00;16.80;;;4.00;99.90;;;;;;5041264;28;20040;-78
2022/03/20 03:13:31;;;;;;;30.52;16.23;;;4.10;99.90;;;;;;5038639;28;20030;-79
2022/03/20 03:15:59;;;;;;;32.45;17.08;;;4.10;99.90;;;;;;5045571;28;20038;-80
2022/03/20 03:18:25;;;;;;;27.45;16.73;;;4.10;99.90;;;;;;5045409;28;20030;-80
2022/03/20 03:20:51;;;;;;;28.52;17.20;;;4.10;99.90;;;;;;5042801;28;20029;-80
2022/03/20 03:23:18;;;;;;;31.25;16.55;;;4.10;99.90;;;;;;5022265;28;20079;-78
2022/03/20 03:25:45;;;;;;;30.38;16.30;;;4.10;99.90;;;;;;5039563;28;20032;-78
2022/03/20 03:28:11;;;;;;;25.83;15.52;;;4.10;99.90;;;;;;5039853;28;20028;-77
2022/03/20 03:30:38;;;;;;;30.42;16.98;;;4.10;99.90;;;;;;5040949;28;20032;-80
2022/03/20 03:33:03;;;;;;;26.00;15.07;;;4.10;99.90;;;;;;5043951;28;20026;-79
2022/03/20 03:38:16;;;;;;;29.27;16.75;;;4.10;99.90;;;;;;5038870;28;20032;-80
2022/03/20 03:40:44;;;;;;;28.48;16.38;;;4.10;99.90;;;;;;5020695;28;20076;-79
2022/03/20 03:43:15;;;;;;;25.25;15.43;;;4.10;99.90;;;;;;5039450;28;20081;-78
2022/03/20 03:45:41;;;;;;;28.50;15.60;;;4.10;99.90;;;;;;5019673;28;20022;-78
2022/03/20 03:48:10;;;;;;;27.92;16.13;;;4.10;99.90;;;;;;5019428;28;20026;-80
2022/03/20 03:50:38;;;;;;;31.83;16.45;;;4.10;99.90;;;;;;5019240;28;20030;-77
2022/03/20 03:53:05;;;;;;;29.27;16.63;;;4.10;99.90;;;;;;5018180;28;20030;-78
2022/03/20 03:55:31;;;;;;;28.95;15.40;;;4.10;99.90;;;;;;5017978;28;20121;-77
2022/03/20 03:57:57;;;;;;;27.73;15.38;;;4.10;99.90;;;;;;5021009;28;20029;-77
2022/03/20 04:00:24;;;;;;;33.67;17.73;;;4.10;99.90;;;;;;5021769;28;20401;-79
2022/03/20 04:02:50;;;;;;;27.10;15.48;;;4.10;99.90;;;;;;5021530;28;20026;-77
2022/03/20 04:05:19;;;;;;;29.70;15.43;;;4.20;99.90;;;;;;5023228;28;20033;-78
2022/03/20 04:07:47;;;;;;;26.33;15.27;;;4.20;99.90;;;;;;5021929;28;20034;-77
2022/03/20 04:10:14;;;;;;;24.08;14.95;;;4.10;99.90;;;;;;5023132;28;20033;-78
2022/03/20 04:12:46;;;;;;;27.52;15.32;;;4.10;99.90;;;;;;5024138;28;20022;-79
2022/03/20 04:15:13;;;;;;;25.02;15.95;;;4.10;99.90;;;;;;5022536;28;20041;-79
2022/03/20 04:17:40;;;;;;;30.23;15.88;;;4.10;99.90;;;;;;5023025;28;20440;-78
2022/03/20 04:20:08;;;;;;;28.00;15.25;;;4.10;99.90;;;;;;5024609;28;20026;-79
2022/03/20 04:22:39;;;;;;;30.42;16.77;;;4.10;99.90;;;;;;5024182;28;20113;-78
2022/03/20 04:25:05;;;;;;;28.17;14.93;;;4.10;99.90;;;;;;5022298;28;20033;-79
2022/03/20 04:27:32;;;;;;;30.20;16.08;;;4.10;99.90;;;;;;5023871;28;20017;-79
2022/03/20 04:29:58;;;;;;;25.50;14.95;;;4.10;99.90;;;;;;5022726;28;20025;-78
2022/03/20 04:32:24;;;;;;;27.13;14.82;;;4.00;99.90;;;;;;5023062;28;20026;-80
2022/03/20 04:34:50;;;;;;;25.95;15.48;;;4.00;99.90;;;;;;5022189;28;20044;-76
2022/03/20 04:37:17;;;;;;;27.67;15.93;;;4.00;99.90;;;;;;5022381;28;20044;-77
2022/03/20 04:39:43;;;;;;;29.15;14.82;;;4.00;99.90;;;;;;5023266;28;20014;-77
2022/03/20 04:42:09;;;;;;;27.40;15.20;;;4.10;99.50;;;;;;5025664;28;20036;-78
2022/03/20 04:44:39;;;;;;;28.70;14.73;;;4.10;98.40;;;;;;5047243;28;20064;-80
2022/03/20 04:58:28;;;;;;;26.38;15.20;;;4.00;98.20;;;;;;5065382;28;20025;-78
2022/03/20 05:00:49;;;;;;;23.58;14.05;;;4.00;97.00;;;;;;5063040;28;20028;-78
2022/03/20 05:03:15;;;;;;;25.73;14.35;;;4.00;96.90;;;;;;5044638;28;20025;-79
2022/03/20 05:05:40;;;;;;;27.90;14.75;;;4.00;95.40;;;;;;5044381;28;20384;-79
2022/03/20 05:08:06;;;;;;;26.70;14.88;;;4.00;96.50;;;;;;5062334;28;20099;-79
2022/03/20 05:13:22;;;;;;;25.58;14.75;;;4.00;94.90;;;;;;5061857;28;20031;-78
2022/03/20 05:15:48;;;;;;;27.70;14.27;;;4.00;96.00;;;;;;5043594;28;20064;-78
2022/03/20 05:18:14;;;;;;;25.80;14.40;;;3.90;96.00;;;;;;5043247;28;20017;-79
2022/03/20 05:20:44;;;;;;;22.80;14.27;;;3.90;95.40;;;;;;5061000;28;20496;-78
2022/03/20 05:23:10;;;;;;;26.10;14.18;;;3.90;96.20;;;;;;5061605;28;20032;-78
2022/03/20 05:25:37;;;;;;;30.15;15.25;;;3.90;95.40;;;;;;5044103;28;20021;-78
2022/03/20 05:28:02;;;;;;;24.13;15.48;;;3.80;95.20;;;;;;5043147;28;20027;-80
2022/03/20 05:30:28;;;;;;;23.17;14.50;;;3.70;96.00;;;;;;5061499;28;20186;-79
2022/03/20 05:32:54;;;;;;;26.02;14.77;;;3.70;95.40;;;;;;5060165;28;20091;-79
2022/03/20 05:35:20;;;;;;;27.55;14.52;;;3.60;95.50;;;;;;5041843;28;20029;-79
2022/03/20 05:37:46;;;;;;;24.63;13.68;;;3.60;95.30;;;;;;5060546;28;20017;-79
2022/03/20 05:40:13;;;;;;;26.55;14.48;;;3.60;94.70;;;;;;5043629;28;20610;-77
2022/03/20 05:42:39;;;;;;;23.77;14.75;;;3.50;95.20;;;;;;5061511;28;20067;-80
2022/03/20 05:45:06;;;;;;;25.92;14.43;;;3.50;95.60;;;;;;5028268;28;20033;-78
2022/03/20 05:47:32;;;;;;;25.25;14.02;;;3.40;96.30;;;;;;5023058;28;20108;-79
2022/03/20 05:50:03;;;;;;;26.02;14.23;;;3.40;96.90;;;;;;5040283;28;20029;-79
2022/03/20 05:52:32;;;;;;;24.25;13.70;;;3.40;96.40;;;;;;5043061;28;20025;-79
2022/03/20 05:55:04;;;;;;;24.85;13.60;;;3.40;96.50;;;;;;5029717;28;20053;-77
2022/03/20 06:00:23;;;;;;;21.92;12.98;;;3.30;96.50;;;;;;5041422;28;20088;-78
2022/03/20 06:02:49;;;;;;;25.58;14.32;;;3.30;96.20;;;;;;5041149;28;20025;-77
2022/03/20 06:05:14;;;;;;;24.23;13.52;;;3.30;97.10;;;;;;5022422;28;20115;-78
2022/03/20 06:07:42;;;;;;;26.88;15.75;;;3.30;96.70;;;;;;5021986;28;20495;-80
2022/03/20 06:10:13;;;;;;;29.02;13.98;;;3.30;97.70;;;;;;5040174;28;20025;-78
2022/03/20 06:12:39;;;;;;;27.67;14.70;;;3.30;97.60;;;;;;5039790;28;20059;-77
2022/03/20 06:15:08;;;;;;;22.77;13.50;;;3.30;97.50;;;;;;5040417;28;20404;-76
2022/03/20 06:17:37;;;;;;;23.42;13.60;;;3.30;96.90;;;;;;5067733;22;20090;-76
2022/03/20 06:20:06;;;;;;;26.40;15.20;;;3.30;96.70;;;;;;5026991;28;20433;-78
2022/03/20 06:22:32;;;;;;;27.98;14.43;;;3.40;96.60;;;;;;5046119;28;20021;-77
2022/03/20 06:24:57;;;;;;;23.60;14.40;;;3.40;96.80;;;;;;5045000;28;20092;-80
2022/03/20 06:27:23;;;;;;;28.25;14.85;;;3.50;95.40;;;;;;5046189;28;20116;-79
2022/03/20 06:29:49;;;;;;;27.70;14.63;;;3.50;95.90;;;;;;5046241;28;20049;-79
2022/03/20 06:32:15;;;;;;;26.13;14.82;;;3.50;95.00;;;;;;5046009;28;20029;-79
2022/03/20 06:34:42;;;;;;;24.85;14.00;;;3.50;94.70;;;;;;5028657;28;20041;-77
2022/03/20 06:37:08;;;;;;;25.60;14.95;;;3.60;94.40;;;;;;5028011;28;20025;-78
2022/03/20 06:39:33;;;;;;;27.13;13.90;;;3.60;95.00;;;;;;5044657;28;20068;-78
2022/03/20 06:42:00;;;;;;;28.20;15.05;;;3.60;94.60;;;;;;5028021;28;20029;-77
2022/03/20 06:44:26;;;;;;;25.67;13.93;;;3.80;94.10;;;;;;5035907;28;20017;-78
2022/03/20 06:46:54;;;;;;;23.90;13.98;;;4.00;93.30;;;;;;5061459;28;20021;-75
2022/03/20 06:49:20;;;;;;;24.23;13.43;;;4.20;92.70;;;;;;5061268;28;20040;-76
2022/03/20 06:51:46;;;;;;;26.52;13.90;;;4.40;90.30;;;;;;5061856;28;20059;-79
2022/03/20 06:54:12;;;;;;;26.27;14.23;;;4.50;87.30;;;;;;5046335;28;20025;-78
2022/03/20 06:56:38;;;;;;;24.02;12.98;;;4.60;87.60;;;;;;5044818;28;20048;-77
2022/03/20 06:59:04;;;;;;;23.23;14.07;;;4.80;84.00;;;;;;5062609;28;20032;-78
2022/03/20 07:01:30;;;;;;;26.48;14.35;;;4.80;84.00;;;;;;5062434;28;20043;-76
2022/03/20 07:03:56;;;;;;;25.02;13.98;;;4.90;83.00;;;;;;5061166;28;20021;-78
2022/03/20 07:06:26;;;;;;;25.15;14.18;;;4.80;82.70;;;;;;5064136;28;20060;-75
2022/03/20 07:08:55;;;;;;;22.30;13.80;;;4.70;83.40;;;;;;5053162;28;20017;-80
2022/03/20 07:11:21;;;;;;;23.67;14.27;;;4.80;84.80;;;;;;5054109;28;20028;-78
2022/03/20 07:13:49;;;;;;;27.27;14.70;;;5.00;82.10;;;;;;5045981;28;20448;-78
2022/03/20 07:16:15;;;;;;;24.13;14.70;;;5.10;81.90;;;;;;5064900;28;20087;-76
2022/03/20 07:18:42;;;;;;;24.88;13.85;;;5.20;80.80;;;;;;5065350;28;20021;-77
2022/03/20 07:21:08;;;;;;;22.75;13.73;;;5.20;78.70;;;;;;5065737;28;20032;-79
2022/03/20 07:23:35;;;;;;;26.80;15.05;;;5.00;79.00;;;;;;5046650;28;20028;-78
2022/03/20 07:31:29;;;;;;;27.60;14.82;;;4.80;81.80;;;;;;5062582;28;20040;-78
2022/03/20 07:33:55;;;;;;;26.58;15.20;;;4.70;82.70;;;;;;5062748;28;20032;-77
2022/03/20 07:36:20;;;;;;;24.00;14.57;;;4.70;82.10;;;;;;5065680;28;20027;-78
2022/03/20 07:38:46;;;;;;;23.60;13.75;;;4.80;80.90;;;;;;5063812;28;20029;-77
2022/03/20 07:41:11;;;;;;;31.13;16.35;;;4.80;81.20;;;;;;5062045;28;20503;-78
2022/03/20 07:43:37;;;;;;;25.60;13.90;;;4.90;80.70;;;;;;5057364;28;20032;-77
2022/03/20 07:46:03;;;;;;;25.17;14.55;;;4.90;81.50;;;;;;5027498;28;20079;-79
2022/03/20 07:48:28;;;;;;;28.08;14.73;;;4.80;81.10;;;;;;5029720;28;20034;-78
2022/03/20 07:50:54;;;;;;;27.23;14.70;;;4.80;81.80;;;;;;5042860;28;20030;-77
2022/03/20 07:53:20;;;;;;;29.02;15.80;;;4.90;81.80;;;;;;5025935;28;20025;-79
2022/03/20 07:55:46;;;;;;;29.73;15.18;;;4.90;82.80;;;;;;5027979;28;20440;-78
2022/03/20 07:58:19;;;;;;;29.85;15.38;;;4.90;82.80;;;;;;5026195;28;20373;-76
2022/03/20 08:00:45;;;;;;;27.63;15.18;;;5.00;82.80;;;;;;5043300;28;20018;-77
2022/03/20 08:03:11;;;;;;;26.75;15.15;;;4.90;82.20;;;;;;5044052;28;20083;-77
2022/03/20 08:05:37;;;;;;;28.85;14.07;;;5.00;82.60;;;;;;5042693;28;20112;-77
2022/03/20 08:08:04;;;;;;;28.20;15.60;;;5.00;82.10;;;;;;5045682;28;20033;-79
2022/03/20 08:10:30;;;;;;;27.67;14.95;;;5.10;82.50;;;;;;5044678;28;20030;-79
2022/03/20 08:12:56;;;;;;;26.55;15.75;;;5.20;82.30;;;;;;5044165;28;20033;-77
2022/03/20 08:15:23;;;;;;;26.10;15.55;;;5.30;82.80;;;;;;5044786;28;20068;-77
2022/03/20 08:17:50;;;;;;;25.73;15.40;;;5.40;82.30;;;;;;5042940;28;20021;-79
2022/03/20 08:20:16;;;;;;;21.70;14.05;;;5.50;81.00;;;;;;5046981;28;20017;-78
2022/03/20 08:22:42;;;;;;;27.15;15.52;;;5.60;81.10;;;;;;5046101;28;20047;-76
2022/03/20 08:25:12;;;;;;;29.00;16.73;;;5.70;82.20;;;;;;5029600;28;20026;-78
2022/03/20 08:27:45;;;;;;;28.60;16.10;;;5.80;81.20;;;;;;5025894;28;20021;-77
2022/03/20 08:30:13;;;;;;;29.50;16.15;;;5.80;80.70;;;;;;5042906;28;20022;-78
2022/03/20 08:32:39;;;;;;;27.92;15.52;;;6.00;80.70;;;;;;5026762;28;20033;-79
2022/03/20 08:35:05;;;;;;;28.70;15.32;;;6.10;78.60;;;;;;5044972;28;20033;-78
2022/03/20 08:37:32;;;;;;;26.10;15.77;;;6.20;80.00;;;;;;5026421;28;20028;-76
2022/03/20 08:39:58;;;;;;;27.92;16.98;;;6.30;79.30;;;;;;5043733;28;20017;-78
2022/03/20 08:42:24;;;;;;;31.30;16.27;;;6.40;79.10;;;;;;5021798;28;20343;-79
2022/03/20 08:44:52;;;;;;;28.50;17.67;;;6.60;78.80;;;;;;5058410;28;20029;-78
2022/03/20 08:47:18;;;;;;;29.23;16.83;;;6.70;77.20;;;;;;5048497;28;20052;-78
2022/03/20 08:49:43;;;;;;;28.50;17.48;;;6.80;76.70;;;;;;5065390;28;20040;-80
2022/03/20 08:52:09;;;;;;;30.10;17.25;;;6.70;76.70;;;;;;5049929;28;20051;-78
2022/03/20 08:54:34;;;;;;;32.47;16.85;;;6.70;76.90;;;;;;5049536;28;20057;-79
2022/03/20 08:57:01;;;;;;;41.10;20.77;;;6.70;77.20;;;;;;5069040;28;20501;-77
2022/03/20 08:59:27;;;;;;;27.10;16.48;;;6.70;77.50;;;;;;5048529;28;20017;-76
2022/03/20 09:01:52;;;;;;;29.70;17.40;;;6.80;77.80;;;;;;5049532;28;20032;-79
2022/03/20 09:04:18;;;;;;;36.00;18.00;;;6.90;77.40;;;;;;5067972;28;20108;-77
2022/03/20 09:06:47;;;;;;;30.92;17.45;;;7.20;76.60;;;;;;5048969;28;20032;-79
2022/03/20 09:09:14;;;;;;;32.92;18.25;;;7.70;75.00;;;;;;5049479;28;20024;-78
2022/03/20 09:11:41;;;;;;;28.73;18.27;;;8.00;73.40;;;;;;5049641;28;20025;-78
2022/03/20 09:14:07;;;;;;;28.30;17.02;;;8.10;73.50;;;;;;5066136;28;20031;-75
2022/03/20 09:19:18;;;;;;;30.80;17.60;;;7.80;74.20;;;;;;5064576;28;20036;-75
2022/03/20 09:21:45;;;;;;;34.63;18.83;;;7.90;73.40;;;;;;5064774;28;20025;-78
2022/03/20 09:24:11;;;;;;;29.30;18.98;;;7.90;73.40;;;;;;5047331;28;20021;-80
2022/03/20 09:26:37;;;;;;;34.28;18.58;;;8.10;73.40;;;;;;5066925;28;20159;-80
2022/03/20 09:29:03;;;;;;;30.52;18.67;;;8.20;73.20;;;;;;5066004;28;20037;-78
2022/03/20 09:31:31;;;;;;;43.42;23.17;;;8.50;72.10;;;;;;5046332;28;20043;-78
2022/03/20 09:33:57;;;;;;;31.10;19.00;;;8.90;71.50;;;;;;5047660;28;20029;-77
2022/03/20 09:36:23;;;;;;;37.67;19.52;;;9.20;69.90;;;;;;5066971;28;20021;-80
2022/03/20 09:38:49;;;;;;;31.75;18.70;;;9.30;69.60;;;;;;5066127;28;20049;-79
2022/03/20 09:41:15;;;;;;;31.83;19.50;;;9.40;68.70;;;;;;5048708;28;20021;-78
2022/03/20 09:43:43;;;;;;;29.15;17.65;;;9.40;70.10;;;;;;5062750;28;20021;-76
2022/03/20 09:46:09;;;;;;;32.08;18.90;;;9.70;69.80;;;;;;5046585;28;20033;-78
2022/03/20 09:48:35;;;;;;;31.85;18.85;;;9.80;68.10;;;;;;5046531;28;20086;-79
2022/03/20 09:51:05;;;;;;;35.92;21.90;;;10.10;68.00;;;;;;5046102;28;20026;-78
2022/03/20 09:53:31;;;;;;;31.27;18.98;;;10.40;67.50;;;;;;5026545;28;20397;-77
2022/03/20 09:55:57;;;;;;;29.42;18.83;;;10.80;66.90;;;;;;5043382;28;20029;-77
2022/03/20 09:58:28;;;;;;;74.18;38.78;;;11.30;66.00;;;;;;5025422;28;20089;-77
2022/03/20 10:00:54;;;;;;;31.73;20.88;;;11.50;63.40;;;;;;5025998;28;20060;-79
2022/03/20 10:03:24;;;;;;;33.78;19.40;;;11.60;64.00;;;;;;5045260;28;20051;-77
2022/03/20 10:06:26;;;;;;;32.03;19.33;;;12.00;63.50;;;;;;5026270;28;20083;-78
2022/03/20 10:09:00;;;;;;;30.65;20.17;;;12.50;63.10;;;;;;5042120;28;20033;-78
2022/03/20 10:11:27;;;;;;;35.17;21.48;;;12.60;60.40;;;;;;5023458;28;20436;-77
2022/03/20 10:14:18;;;;;;;32.60;20.70;;;12.60;61.90;;;;;;5042756;28;20117;-75
2022/03/20 10:16:53;;;;;;;34.40;20.80;;;13.10;59.70;;;;;;5041111;28;20033;-77
2022/03/20 10:19:24;;;;;;;32.22;21.27;;;13.50;59.60;;;;;;5041140;28;20444;-79
2022/03/20 10:21:55;;;;;;;27.92;19.42;;;13.60;59.00;;;;;;5041118;28;20032;-76
2022/03/20 10:24:24;;;;;;;31.73;20.23;;;13.70;59.30;;;;;;5024813;28;20025;-76
2022/03/20 10:27:02;;;;;;;30.45;21.33;;;13.80;59.20;;;;;;5041867;28;20026;-77
2022/03/20 10:29:29;;;;;;;28.05;20.42;;;13.90;59.00;;;;;;5041931;28;20022;-77
2022/03/20 10:31:58;;;;;;;34.67;22.17;;;13.90;57.10;;;;;;5041181;28;20479;-77
2022/03/20 10:34:24;;;;;;;33.55;22.02;;;13.70;57.20;;;;;;5041240;28;20034;-78
2022/03/20 10:36:51;;;;;;;35.15;21.83;;;13.50;58.20;;;;;;5041040;28;20022;-76
2022/03/20 10:39:19;;;;;;;33.88;22.77;;;13.30;58.60;;;;;;5041455;28;20559;-78
2022/03/20 10:41:52;;;;;;;33.25;22.23;;;13.10;58.70;;;;;;5023935;28;20036;-79
2022/03/20 10:44:27;;;;;;;35.88;23.30;;;12.90;59.60;;;;;;5050873;28;20013;-76
2022/03/20 10:46:58;;;;;;;37.25;23.80;;;12.80;59.50;;;;;;5061379;28;20032;-79
2022/03/20 10:49:24;;;;;;;34.28;23.08;;;12.40;60.00;;;;;;5044050;28;20029;-75
2022/03/20 10:52:04;;;;;;;31.40;21.15;;;12.40;60.20;;;;;;5062110;28;20428;-76
2022/03/20 10:54:41;;;;;;;36.83;23.17;;;12.50;60.20;;;;;;5043448;28;20040;-78
2022/03/20 10:57:08;;;;;;;33.85;21.48;;;12.50;60.30;;;;;;5061720;28;20104;-77
2022/03/20 10:59:34;;;;;;;35.53;22.98;;;12.40;60.50;;;;;;5060095;28;20021;-76
2022/03/20 11:02:05;;;;;;;36.95;22.80;;;12.20;60.40;;;;;;5042484;28;20021;-78
2022/03/20 11:04:31;;;;;;;35.20;22.20;;;12.20;60.40;;;;;;5060344;28;20017;-79
2022/03/20 11:06:59;;;;;;;35.58;22.35;;;12.20;61.00;;;;;;5059056;28;20021;-78
2022/03/20 11:09:25;;;;;;;35.65;23.35;;;12.20;61.30;;;;;;5059497;28;20036;-77
2022/03/20 11:11:53;;;;;;;35.97;23.42;;;12.20;61.50;;;;;;5042316;28;20025;-78
2022/03/20 11:14:21;;;;;;;34.05;22.02;;;12.30;61.90;;;;;;5072734;28;20076;-76
2022/03/20 11:16:49;;;;;;;33.40;22.67;;;12.30;61.60;;;;;;5072183;28;20024;-76
2022/03/20 11:19:21;;;;;;;35.67;22.20;;;12.30;62.50;;;;;;5065439;28;20029;-76
2022/03/20 11:21:49;;;;;;;36.88;22.42;;;12.50;61.80;;;;;;5060452;28;20074;-76
2022/03/20 11:24:19;;;;;;;32.28;22.45;;;12.70;61.30;;;;;;5041505;28;20033;-77
2022/03/20 11:26:50;;;;;;;38.55;22.95;;;12.80;61.50;;;;;;5059308;28;20025;-76
2022/03/20 11:29:18;;;;;;;36.67;22.95;;;12.80;61.30;;;;;;5057467;28;20021;-79
2022/03/20 11:31:44;;;;;;;33.40;22.70;;;12.90;61.50;;;;;;5040895;28;20025;-78
2022/03/20 11:34:12;;;;;;;32.35;22.92;;;13.00;60.20;;;;;;5058589;28;20033;-79
2022/03/20 11:37:02;;;;;;;35.80;22.98;;;13.30;61.10;;;;;;5042959;28;20032;-78
2022/03/20 11:39:29;;;;;;;36.55;21.88;;;13.40;60.10;;;;;;5059255;28;20022;-79
2022/03/20 11:42:20;;;;;;;36.30;22.15;;;13.30;59.80;;;;;;5041564;28;20021;-76
2022/03/20 11:45:04;;;;;;;34.63;23.00;;;13.20;60.20;;;;;;5029028;28;20029;-76
2022/03/20 11:47:35;;;;;;;37.45;23.23;;;13.10;61.30;;;;;;5040377;28;20126;-78
2022/03/20 11:50:16;;;;;;;34.75;22.52;;;13.00;62.10;;;;;;5041181;28;20026;-77
2022/03/20 11:52:46;;;;;;;34.63;23.13;;;13.00;63.40;;;;;;5023239;28;20112;-77
2022/03/20 11:55:33;;;;;;;32.33;22.55;;;13.00;62.00;;;;;;5022588;28;20116;-77
2022/03/20 11:58:05;;;;;;;35.20;22.92;;;13.10;61.70;;;;;;5040951;28;20021;-77
2022/03/20 12:00:36;;;;;;;36.67;23.63;;;13.30;62.50;;;;;;5040450;28;20435;-77
2022/03/20 12:03:13;;;;;;;35.17;23.45;;;13.50;61.10;;;;;;5022872;28;20055;-77
2022/03/20 12:05:44;;;;;;;33.30;22.70;;;13.80;61.00;;;;;;5040315;28;20108;-79
2022/03/20 12:08:28;;;;;;;35.75;21.10;;;14.00;63.10;;;;;;5039561;28;20022;-78
2022/03/20 12:11:19;;;;;;;32.85;23.17;;;14.20;61.30;;;;;;5040732;28;20076;-78
2022/03/20 12:13:54;;;;;;;32.08;21.70;;;13.90;60.60;;;;;;5012514;28;20040;-77
2022/03/20 12:16:44;;;;;;;35.67;22.55;;;13.90;60.70;;;;;;5038129;28;20052;-76
2022/03/20 12:19:20;;;;;;;32.55;22.42;;;13.90;61.90;;;;;;5035184;28;20266;-76
2022/03/20 12:21:59;;;;;;;39.80;24.10;;;14.10;61.70;;;;;;5037000;28;20021;-75
2022/03/20 12:24:34;;;;;;;37.50;24.77;;;14.30;61.60;;;;;;5019604;28;20028;-79
2022/03/20 12:27:20;;;;;;;38.80;24.27;;;14.30;61.60;;;;;;5019327;28;20036;-78
2022/03/20 12:29:49;;;;;;;35.10;24.13;;;14.10;61.50;;;;;;5024198;28;20112;-77
2022/03/20 12:32:15;;;;;;;41.25;24.80;;;13.80;62.90;;;;;;5038572;28;20444;-77
2022/03/20 12:34:56;;;;;;;35.17;23.33;;;13.60;64.50;;;;;;5040728;28;20048;-77
2022/03/20 12:37:28;;;;;;;36.38;24.80;;;13.60;64.80;;;;;;5020100;28;20389;-78
2022/03/20 12:39:55;;;;;;;36.70;24.48;;;13.50;64.80;;;;;;5037858;28;20022;-76
2022/03/20 12:42:24;;;;;;;37.17;23.98;;;13.30;65.30;;;;;;5019073;28;20021;-77
2022/03/20 12:44:52;;;;;;;37.33;24.25;;;13.20;66.00;;;;;;5050338;28;20569;-76
2022/03/20 12:47:19;;;;;;;38.38;24.35;;;13.40;66.30;;;;;;5040757;28;20029;-74
2022/03/20 12:49:51;;;;;;;36.72;24.02;;;13.30;66.20;;;;;;5058615;28;20025;-78
2022/03/20 12:52:19;;;;;;;39.88;24.52;;;13.30;66.40;;;;;;5039267;28;20485;-76
2022/03/20 12:54:56;;;;;;;37.05;24.30;;;13.20;66.40;;;;;;5038278;28;20029;-78
2022/03/20 12:57:41;;;;;;;37.72;23.95;;;13.30;67.10;;;;;;5038914;28;20384;-77
2022/03/20 13:00:12;;;;;;;38.58;24.20;;;13.40;66.80;;;;;;5038476;28;20025;-77
2022/03/20 13:02:57;;;;;;;36.33;23.45;;;13.40;67.40;;;;;;5056563;28;20456;-79
2022/03/20 13:05:24;;;;;;;35.55;21.77;;;13.30;67.70;;;;;;5056278;28;20029;-77
2022/03/20 13:07:49;;;;;;;36.05;22.73;;;13.30;67.70;;;;;;5057073;28;20020;-77
2022/03/20 13:10:16;;;;;;;37.72;24.27;;;13.30;68.10;;;;;;5038858;28;20039;-75